Richmond's Hourly Summary for Monday, March 13, 2017
Hour Temp
(f)
RH
(%)
Solar Rad.
(MJ/m2)
Rainfall
(in)
Wind
(mph)
3/13/2017 12:00 AM 53 83 0 0 2.97
3/13/2017 1:00 AM 52 84 0 0 4.22
3/13/2017 2:00 AM 52 87 0 0 1.31
3/13/2017 3:00 AM 52 89 0 0 3.72
3/13/2017 4:00 AM 51 91 0 0 2.32
3/13/2017 5:00 AM 50 93 0 0 2.68
3/13/2017 6:00 AM 51 88 0 0 5.37
3/13/2017 7:00 AM 51 87 0 0 6.83
3/13/2017 8:00 AM 52 87 0.01 0 6.27
3/13/2017 9:00 AM 52 85 0.08 0 8.18
3/13/2017 10:00 AM 53 82 0.29 0 8.32
3/13/2017 11:00 AM 54 81 0.57 0 8.61
3/13/2017 12:00 PM 57 75 1.22 0 5.86
3/13/2017 1:00 PM 60 72 1.41 0 9.11
3/13/2017 2:00 PM 60 71 2.09 0 9.61
3/13/2017 3:00 PM 63 64 2.18 0 7.66
3/13/2017 4:00 PM 65 59 2.43 0 7.5
3/13/2017 5:00 PM 66 50 2.06 0 9.09
3/13/2017 6:00 PM 67 50 1.38 0 10.55
3/13/2017 7:00 PM 66 50 0.63 0 7.75
3/13/2017 8:00 PM 63 54 0.07 0 7.13
3/13/2017 9:00 PM 59 61 0 0 4.85
3/13/2017 10:00 PM 57 69 0 0 5.42
3/13/2017 11:00 PM 55 71 0 0 3.81
Data Summary 56 74 14.42 0.00 6.21